Terminal Aerodrome Forecast
Issued by NWS Huntsville, AL

Home | Current Version | Previous Version | Text Only | Print | Product List | Glossary On
Versions: 1 2 3 4 5 6 7 8 9 10 11 12 13 14 15 16 17 18 19 20 21 22 23 24 25 26 27 28 29 30 31 32 33 34 35 36
000
FTUS44 KHUN 301726
TAFHSV
TAF
KHSV 301726Z 3018/3118 12005KT P6SM -RA SCT020 BKN040
     FM310000 08004KT P6SM SCT010 OVC100
     FM310800 VRB03KT 5SM BR SCT005 OVC030
      TEMPO 3110/3114 BKN005
     FM311400 13005KT P6SM BKN012=

USA.gov is the U.S. government's official web portal to all federal, state and local government web resources and services.